Time;durP1;ratioP1;P1;durP2;ratioP2;P2;SDS_P1;SDS_P2;PMS_P1;PMS_P2;Temp;Humidity;BMP_temperature;BMP_pressure;BME280_temperature;BME280_humidity;BME280_pressure;Samples;Min_cycle;Max_cycle;Signal;HPM_P1;HPM_P2
2023/05/30 03:59:18;;;;;;;10.60;8.00;;;;;;;19.10;71.79;100473.78;5606181;31;93654;-56
2023/05/30 04:02:20;;;;;;;11.70;8.25;;;;;;;19.10;71.79;100473.78;5583820;31;34065;-57
2023/05/30 04:05:23;;;;;;;12.65;8.88;;;;;;;18.73;73.29;100477.16;5583874;32;33575;-56
2023/05/30 04:08:25;;;;;;;12.80;8.20;;;;;;;18.78;70.90;100479.66;5583932;31;33616;-57
2023/05/30 04:11:28;;;;;;;12.02;8.18;;;;;;;18.85;71.13;100481.06;5583835;31;34284;-58
2023/05/30 04:14:30;;;;;;;11.40;7.45;;;;;;;18.91;72.99;100487.87;5584020;32;34324;-57
2023/05/30 04:17:32;;;;;;;11.85;8.15;;;;;;;19.04;71.94;100478.66;5583796;31;33483;-57
2023/05/30 04:20:35;;;;;;;11.75;7.68;;;;;;;19.11;71.92;100481.59;5583849;31;34258;-57
2023/05/30 04:23:41;;;;;;;13.70;8.60;;;;;;;19.16;70.23;100483.31;5583824;32;34262;-56
2023/05/30 04:26:45;;;;;;;12.18;8.00;;;;;;;19.19;69.93;100493.50;5583874;32;34019;-56
2023/05/30 04:29:48;;;;;;;12.27;8.40;;;;;;;19.21;70.73;100492.06;5583676;32;33543;-56
2023/05/30 04:32:52;;;;;;;10.60;7.68;;;;;;;19.35;70.06;100485.53;5583822;31;31860;-57
2023/05/30 04:35:56;;;;;;;9.43;7.75;;;;;;;19.33;72.79;100488.56;5583456;32;33620;-57
2023/05/30 04:38:58;;;;;;;12.18;7.72;;;;;;;19.41;68.74;100489.62;5583628;31;33489;-56
2023/05/30 04:42:04;;;;;;;10.23;7.07;;;;;;;19.48;72.38;100495.28;5583442;31;33282;-58
2023/05/30 04:45:14;;;;;;;10.73;7.25;;;;;;;19.47;67.64;100497.22;5583734;32;34243;-56
2023/05/30 04:48:17;;;;;;;13.93;7.75;;;;;;;19.58;77.19;100500.28;5569150;32;33631;-56
2023/05/30 04:51:20;;;;;;;13.50;7.95;;;;;;;19.60;67.25;100499.94;5563919;32;34187;-57
2023/05/30 04:54:27;;;;;;;9.88;7.43;;;;;;;19.67;67.51;100502.94;5563813;32;33306;-57
2023/05/30 04:57:30;;;;;;;15.95;8.02;;;;;;;19.71;64.73;100499.19;5563579;32;34366;-56
2023/05/30 05:00:35;;;;;;;11.05;7.55;;;;;;;19.74;63.75;100496.94;5563516;32;34347;-56
2023/05/30 05:03:40;;;;;;;11.32;6.68;;;;;;;19.78;63.52;100504.06;5563451;32;34347;-56
2023/05/30 05:06:43;;;;;;;11.77;7.70;;;;;;;19.86;68.19;100513.25;5563593;32;33607;-56
2023/05/30 05:09:46;;;;;;;12.93;7.22;;;;;;;19.91;63.82;100508.37;5554295;32;33207;-56
2023/05/30 05:12:50;;;;;;;11.35;7.53;;;;;;;19.99;61.99;100506.69;5550570;32;34262;-56
2023/05/30 05:15:52;;;;;;;9.43;7.47;;;;;;;20.04;64.63;100508.41;5550443;32;34362;-56
2023/05/30 05:18:55;;;;;;;14.43;7.60;;;;;;;20.14;63.91;100510.66;5550468;32;34312;-56
2023/05/30 05:21:57;;;;;;;10.88;6.97;;;;;;;20.32;69.12;100506.53;5550135;32;33657;-56
2023/05/30 05:25:00;;;;;;;10.65;7.72;;;;;;;20.31;61.00;100515.06;5549918;32;34385;-56
2023/05/30 05:28:02;;;;;;;19.62;7.75;;;;;;;20.28;63.51;100516.53;5550482;32;33791;-56
2023/05/30 05:31:05;;;;;;;17.45;7.95;;;;;;;20.32;63.78;100522.88;5549888;32;33254;-57
2023/05/30 05:34:07;;;;;;;10.40;7.18;;;;;;;20.40;61.49;100518.47;5550454;32;34325;-56
2023/05/30 05:37:10;;;;;;;15.70;8.07;;;;;;;20.63;62.02;100516.84;5548971;32;33734;-57
2023/05/30 05:40:13;;;;;;;15.10;7.20;;;;;;;20.64;60.16;100523.09;5549705;32;34388;-56
2023/05/30 05:43:15;;;;;;;9.85;7.28;;;;;;;20.70;61.06;100526.38;5549966;32;33796;-56
2023/05/30 05:46:17;;;;;;;13.52;8.30;;;;;;;20.78;60.03;100525.44;5549616;32;33576;-56
2023/05/30 05:49:20;;;;;;;30.15;8.93;;;;;;;20.78;60.58;100523.50;5549783;32;34357;-56
2023/05/30 05:52:22;;;;;;;30.75;9.73;;;;;;;20.87;61.63;100521.41;5550374;32;33692;-56
2023/05/30 05:55:25;;;;;;;11.82;7.30;;;;;;;21.04;59.28;100523.06;5558833;32;34359;-56
2023/05/30 05:58:27;;;;;;;11.50;7.07;;;;;;;21.23;56.75;100527.88;5569580;32;34230;-56
2023/05/30 06:01:30;;;;;;;15.25;8.13;;;;;;;21.27;58.19;100528.75;5569025;32;33569;-56
2023/05/30 06:04:33;;;;;;;18.60;7.72;;;;;;;21.43;58.95;100539.72;5551144;32;34280;-56
2023/05/30 06:07:35;;;;;;;13.77;6.95;;;;;;;21.38;57.00;100537.25;5560455;32;33716;-57
2023/05/30 06:10:38;;;;;;;14.87;7.57;;;;;;;21.34;60.52;100530.88;5567491;32;33659;-56
2023/05/30 06:13:40;;;;;;;13.30;7.62;;;;;;;21.37;58.54;100534.88;5569057;32;34453;-56
2023/05/30 06:16:43;;;;;;;15.32;8.65;;;;;;;21.39;58.17;100533.38;5568117;32;33565;-56
2023/05/30 06:19:45;;;;;;;20.08;7.97;;;;;;;21.35;56.95;100543.38;5568811;32;34321;-57
2023/05/30 06:22:49;;;;;;;13.02;7.78;;;;;;;21.29;58.38;100533.84;5555060;32;34279;-56
2023/05/30 06:25:51;;;;;;;16.87;8.77;;;;;;;21.46;57.63;100549.16;5565732;32;33069;-56
2023/05/30 06:28:54;;;;;;;13.13;7.80;;;;;;;21.55;56.29;100544.28;5567347;32;33638;-56
2023/05/30 06:31:57;;;;;;;33.03;8.52;;;;;;;21.55;55.70;100547.03;5568393;32;34514;-56
2023/05/30 06:35:16;;;;;;;17.40;7.45;;;;;;;21.47;59.64;100545.28;5566968;32;34016;-56
2023/05/30 06:38:20;;;;;;;58.87;9.77;;;;;;;21.40;55.83;100545.87;5568347;32;33083;-56
2023/05/30 06:41:26;;;;;;;61.75;10.40;;;;;;;21.35;56.43;100552.34;5568716;32;33560;-56
2023/05/30 06:44:28;;;;;;;36.00;10.00;;;;;;;21.27;57.98;100552.50;5567657;32;34406;-56
2023/05/30 06:47:30;;;;;;;26.55;8.13;;;;;;;21.29;57.04;100555.66;5567340;32;34303;-56
2023/05/30 06:50:33;;;;;;;16.70;7.43;;;;;;;21.38;59.46;100561.78;5566271;32;33838;-57
2023/05/30 06:53:35;;;;;;;13.23;7.55;;;;;;;21.53;58.16;100549.31;5568172;32;34242;-54
2023/05/30 06:56:38;;;;;;;13.10;7.53;;;;;;;21.61;56.25;100558.47;5565233;32;34373;-55
2023/05/30 06:59:40;;;;;;;18.67;8.13;;;;;;;21.64;55.83;100557.78;5561838;32;33562;-55
2023/05/30 07:02:42;;;;;;;12.85;7.37;;;;;;;21.64;55.12;100557.78;5567230;32;34298;-55
2023/05/30 07:05:45;;;;;;;16.58;6.97;;;;;;;21.65;57.41;100562.87;5566203;32;33608;-55
2023/05/30 07:08:50;;;;;;;13.00;7.20;;;;;;;21.68;57.36;100556.72;5568403;32;33697;-56
2023/05/30 07:11:52;;;;;;;33.10;7.60;;;;;;;21.74;59.96;100560.78;5564642;32;34279;-55
2023/05/30 07:14:54;;;;;;;172.48;15.13;;;;;;;21.83;56.75;100560.62;5565550;32;33802;-56
2023/05/30 07:17:57;;;;;;;54.92;9.18;;;;;;;22.00;57.02;100571.19;5566393;32;34294;-55
2023/05/30 07:21:00;;;;;;;33.92;8.13;;;;;;;22.04;57.03;100563.06;5561087;32;34390;-56
2023/05/30 07:24:03;;;;;;;33.05;8.27;;;;;;;22.12;56.50;100564.84;5563403;32;33671;-56
2023/05/30 07:27:06;;;;;;;82.97;10.57;;;;;;;22.09;56.14;100571.00;5568206;32;33710;-56
2023/05/30 07:30:08;;;;;;;18.23;7.57;;;;;;;22.19;58.28;100567.78;5567018;31;34069;-55
2023/05/30 07:33:11;;;;;;;14.52;7.20;;;;;;;22.23;56.69;100567.84;5567246;32;33866;-56
2023/05/30 07:36:13;;;;;;;15.45;7.68;;;;;;;22.24;56.08;100572.16;5564986;32;34178;-55
2023/05/30 07:39:15;;;;;;;19.52;6.80;;;;;;;22.34;54.26;100577.06;5565355;32;33803;-56
2023/05/30 07:42:18;;;;;;;10.90;6.78;;;;;;;22.33;54.33;100572.75;5563836;32;33979;-56
2023/05/30 07:45:20;;;;;;;58.92;9.85;;;;;;;22.46;54.17;100571.50;5566509;32;33580;-56
2023/05/30 07:48:23;;;;;;;12.07;7.05;;;;;;;22.63;55.82;100570.31;5566992;32;33882;-56
2023/05/30 07:51:25;;;;;;;9.70;6.45;;;;;;;22.83;56.81;100578.53;5567775;32;34262;-56
2023/05/30 07:54:28;;;;;;;11.75;7.18;;;;;;;23.04;54.89;100572.75;5567194;32;34402;-56
2023/05/30 07:57:31;;;;;;;11.52;6.53;;;;;;;22.99;53.48;100573.84;5564314;32;33559;-56
2023/05/30 08:00:33;;;;;;;53.33;9.85;;;;;;;22.98;53.82;100580.47;5564438;32;33582;-55
2023/05/30 08:03:36;;;;;;;15.50;7.70;;;;;;;23.05;55.64;100574.34;5566368;32;33684;-55
2023/05/30 08:06:39;;;;;;;18.48;7.82;;;;;;;23.11;55.41;100570.97;5565156;32;33598;-55
2023/05/30 08:09:42;;;;;;;16.00;7.43;;;;;;;23.13;58.21;100573.34;5563935;32;33951;-55
2023/05/30 08:12:44;;;;;;;12.73;7.80;;;;;;;23.12;56.51;100572.53;5566683;32;33697;-55
2023/05/30 08:15:47;;;;;;;12.15;6.95;;;;;;;23.13;54.71;100576.06;5566706;32;34207;-55
2023/05/30 08:18:51;;;;;;;12.75;7.10;;;;;;;23.14;54.73;100574.91;5567265;32;34346;-55
2023/05/30 08:21:53;;;;;;;18.48;7.28;;;;;;;23.14;53.12;100581.16;5566327;32;33589;-55
2023/05/30 08:24:59;;;;;;;12.57;6.65;;;;;;;23.13;55.00;100573.34;5565008;32;33902;-56
2023/05/30 08:28:02;;;;;;;17.77;7.28;;;;;;;23.11;55.17;100570.97;5567160;32;33916;-55
2023/05/30 08:31:05;;;;;;;17.52;7.85;;;;;;;23.17;54.33;100571.44;5566581;32;33555;-55
2023/05/30 08:34:09;;;;;;;16.48;7.80;;;;;;;23.13;55.21;100573.34;5561307;32;33582;-55
2023/05/30 08:37:11;;;;;;;16.73;7.43;;;;;;;23.20;53.70;100578.94;5564956;32;33988;-55
2023/05/30 08:40:14;;;;;;;12.05;7.05;;;;;;;23.26;55.74;100572.03;5566571;32;34244;-56
2023/05/30 08:43:17;;;;;;;16.42;7.60;;;;;;;23.23;54.50;100570.00;5567044;32;33689;-55
2023/05/30 08:46:20;;;;;;;13.52;7.40;;;;;;;23.21;55.23;100577.78;5567277;32;34379;-56
2023/05/30 08:49:24;;;;;;;13.30;7.43;;;;;;;23.25;56.00;100569.66;5565791;32;34230;-55
2023/05/30 08:52:28;;;;;;;18.50;7.18;;;;;;;23.29;56.52;100578.72;5569207;32;33866;-55
2023/05/30 08:55:43;;;;;;;10.30;6.87;;;;;;;23.27;56.94;100581.81;5568646;32;33525;-55
2023/05/30 08:58:50;;;;;;;11.35;7.20;;;;;;;23.31;56.72;100584.59;5564032;32;33898;-56
2023/05/30 09:01:55;;;;;;;14.77;7.75;;;;;;;23.31;55.83;100590.09;5557622;32;33730;-55
2023/05/30 09:04:59;;;;;;;12.90;8.15;;;;;;;23.29;55.07;100593.19;5567283;32;33615;-56
2023/05/30 09:08:02;;;;;;;14.40;7.32;;;;;;;23.08;56.11;100603.69;5568023;32;34484;-58
2023/05/30 09:11:05;;;;;;;13.15;7.95;;;;;;;23.06;56.78;100606.00;5567705;32;34382;-57
2023/05/30 09:14:08;;;;;;;13.13;7.97;;;;;;;23.00;57.94;100610.97;5567608;32;34602;-57
2023/05/30 09:17:11;;;;;;;12.30;9.10;;;;;;;22.96;58.16;100610.88;5568020;32;33298;-57
2023/05/30 09:20:17;;;;;;;17.60;8.13;;;;;;;22.97;58.43;100615.19;5567629;32;33593;-57
2023/05/30 09:23:21;;;;;;;18.48;8.85;;;;;;;22.95;58.83;100612.03;5568271;32;33246;-57
2023/05/30 09:26:23;;;;;;;17.80;8.88;;;;;;;22.92;59.96;100620.94;5567332;32;34393;-57
2023/05/30 09:29:26;;;;;;;17.12;8.15;;;;;;;22.92;58.68;100617.41;5567372;32;33646;-57
2023/05/30 09:32:36;;;;;;;28.25;8.88;;;;;;;22.97;58.96;100626.13;5567321;32;33742;-57
2023/05/30 09:35:44;;;;;;;12.88;8.75;;;;;;;22.96;58.98;100630.03;5565709;32;33900;-57
2023/05/30 09:38:53;;;;;;;11.90;7.68;;;;;;;23.01;58.92;100634.41;5556286;32;34914;-56
2023/05/30 09:41:57;;;;;;;25.20;8.10;;;;;;;23.07;57.74;100641.19;5557236;32;33440;-56
2023/05/30 09:45:03;;;;;;;29.55;8.25;;;;;;;23.07;57.50;100643.13;5565672;32;34224;-57
2023/05/30 09:48:05;;;;;;;12.43;7.97;;;;;;;23.03;58.55;100645.78;5556654;32;34304;-57
2023/05/30 09:51:10;;;;;;;16.00;7.78;;;;;;;23.13;57.23;100644.44;5562651;32;34604;-57
2023/05/30 09:54:13;;;;;;;11.60;7.30;;;;;;;23.08;56.90;100639.22;5568832;32;33829;-57
2023/05/30 09:57:15;;;;;;;14.75;7.57;;;;;;;;;;5569088;32;33488;-57
2023/05/30 10:00:25;;;;;;;9.57;7.80;;;;;;;23.07;59.11;100648.59;5566416;32;33923;-57
2023/05/30 10:03:42;;;;;;;23.87;8.32;;;;;;;23.11;57.04;100639.34;5568618;32;33813;-57
2023/05/30 10:06:47;;;;;;;9.73;7.18;;;;;;;23.14;57.57;100640.53;5549850;32;33788;-57
2023/05/30 10:09:51;;;;;;;13.23;7.37;;;;;;;22.97;59.11;100639.78;5549940;32;33650;-57
2023/05/30 10:12:55;;;;;;;10.38;7.22;;;;;;;23.03;58.08;100642.25;5549858;32;33597;-57
2023/05/30 10:16:00;;;;;;;11.32;7.37;;;;;;;22.99;58.55;100636.72;5568242;32;33571;-57
2023/05/30 10:19:08;;;;;;;11.30;7.03;;;;;;;23.00;57.79;100646.50;5568979;32;33628;-57
2023/05/30 10:22:13;;;;;;;10.98;7.18;;;;;;;23.04;57.87;100633.69;5567892;32;33682;-58
2023/05/30 10:25:18;;;;;;;9.18;6.85;;;;;;;23.15;57.25;100632.00;5566101;32;34396;-57
2023/05/30 10:28:26;;;;;;;12.70;6.32;;;;;;;23.14;55.69;100622.19;5567169;32;34245;-57
2023/05/30 10:31:29;;;;;;;11.32;5.93;;;;;;;23.23;55.80;100624.72;5566213;32;33643;-57
2023/05/30 10:34:44;;;;;;;7.37;5.75;;;;;;;23.17;56.02;100626.94;5562696;32;34399;-56
2023/05/30 10:37:47;;;;;;;8.18;5.50;;;;;;;23.32;56.08;100632.72;5561284;32;34314;-56
2023/05/30 10:41:09;;;;;;;8.40;5.68;;;;;;;23.34;54.99;100622.19;5565623;32;33776;-57
2023/05/30 10:44:49;;;;;;;11.65;7.10;;;;;;;23.46;54.67;100616.56;5560814;32;34493;-56
2023/05/30 10:48:10;;;;;;;8.00;5.80;;;;;;;23.47;54.77;100618.16;5550914;32;33462;-56
2023/05/30 10:51:13;;;;;;;11.82;6.03;;;;;;;23.50;55.15;100614.69;5568837;32;33457;-56
2023/05/30 10:54:22;;;;;;;8.63;6.00;;;;;;;23.31;55.46;100612.78;5560164;32;33540;-57
2023/05/30 10:57:28;;;;;;;10.20;5.97;;;;;;;23.33;56.31;100617.88;5549466;32;33681;-56
2023/05/30 11:00:31;;;;;;;17.83;6.70;;;;;;;23.22;56.64;100609.47;5549511;32;33509;-56
2023/05/30 11:03:36;;;;;;;7.28;6.03;;;;;;;23.29;57.51;100615.06;5546040;32;34854;-57
2023/05/30 11:06:42;;;;;;;;;;;;;;;23.25;55.78;100614.22;5548295;32;34417;-56
2023/05/30 11:10:03;;;;;;;9.50;5.85;;;;;;;23.27;56.83;100606.44;5550118;32;34626;-56
2023/05/30 11:13:14;;;;;;;7.80;6.28;;;;;;;23.27;57.93;100608.38;5561464;32;34283;-57
2023/05/30 11:16:23;;;;;;;11.15;6.30;;;;;;;23.29;57.34;100601.41;5550660;32;33128;-57
2023/05/30 11:19:26;;;;;;;8.93;6.30;;;;;;;23.45;57.03;100596.63;5565496;32;34385;-56
2023/05/30 11:22:29;;;;;;;15.63;6.40;;;;;;;23.43;57.22;100595.41;5566857;32;33762;-56
2023/05/30 11:25:32;;;;;;;12.15;7.00;;;;;;;23.48;58.36;100595.12;5563764;32;33902;-56
2023/05/30 11:28:36;;;;;;;9.10;5.95;;;;;;;23.45;58.54;100598.59;5555542;32;33773;-56
2023/05/30 11:31:40;;;;;;;8.98;6.78;;;;;;;23.48;57.65;100597.84;5555607;32;33617;-56
2023/05/30 11:34:42;;;;;;;8.90;6.15;;;;;;;23.45;56.46;100593.91;5549270;32;33414;-56
2023/05/30 11:37:46;;;;;;;10.25;6.30;;;;;;;23.58;57.27;100604.69;5559134;32;33708;-57
2023/05/30 11:40:50;;;;;;;8.55;5.75;;;;;;;23.62;56.79;100598.12;5559806;32;33851;-57
2023/05/30 11:43:53;;;;;;;9.27;6.65;;;;;;;23.78;56.62;100602.72;5568449;32;33735;-57
2023/05/30 11:46:58;;;;;;;7.57;5.72;;;;;;;23.65;55.66;100597.38;5558026;32;34149;-56
2023/05/30 11:50:01;;;;;;;9.15;5.53;;;;;;;23.73;56.05;100600.28;5567366;32;34497;-56
2023/05/30 11:53:12;;;;;;;9.43;5.90;;;;;;;23.53;54.76;100591.28;5567502;32;33631;-57
2023/05/30 11:56:15;;;;;;;11.10;5.90;;;;;;;23.41;55.43;100578.56;5567757;32;33642;-56
2023/05/30 11:59:19;;;;;;;8.65;6.10;;;;;;;23.42;56.96;100582.87;5559986;32;33656;-56
2023/05/30 12:02:26;;;;;;;9.63;5.75;;;;;;;23.44;58.81;100580.56;5566203;32;34375;-57
2023/05/30 12:05:33;;;;;;;8.30;5.53;;;;;;;23.59;57.83;100587.09;5547945;32;33610;-56
2023/05/30 12:08:42;;;;;;;8.82;6.05;;;;;;;23.64;58.17;100589.53;5549053;32;33491;-57
2023/05/30 12:11:56;;;;;;;7.05;6.03;;;;;;;23.64;57.28;100576.66;5567233;32;33596;-56
2023/05/30 12:15:03;;;;;;;7.87;5.80;;;;;;;23.77;58.75;100573.75;5561202;32;34365;-56
2023/05/30 12:18:06;;;;;;;13.30;6.20;;;;;;;23.82;58.25;100568.00;5554971;32;33671;-56
2023/05/30 12:21:10;;;;;;;9.60;6.75;;;;;;;23.71;58.46;100581.50;5564872;32;33446;-56
2023/05/30 12:24:14;;;;;;;9.32;6.82;;;;;;;23.60;57.19;100580.47;5568488;32;33603;-56
2023/05/30 12:27:21;;;;;;;8.43;5.97;;;;;;;23.54;56.62;100569.06;5565005;32;33060;-56
2023/05/30 12:30:24;;;;;;;9.82;6.10;;;;;;;23.31;57.33;100563.53;5569772;32;34384;-56
2023/05/30 12:33:29;;;;;;;9.25;5.72;;;;;;;23.32;57.48;100556.13;5570145;32;34665;-57
2023/05/30 12:36:33;;;;;;;8.07;6.00;;;;;;;23.54;56.61;100551.81;5556749;32;33718;-57
2023/05/30 12:39:35;;;;;;;10.02;6.60;;;;;;;23.64;56.13;100548.47;5562615;32;33836;-56
2023/05/30 12:42:42;;;;;;;7.40;5.62;;;;;;;23.63;55.93;100539.47;5564483;32;33685;-57
2023/05/30 12:45:45;;;;;;;8.25;5.82;;;;;;;23.64;55.30;100532.88;5553483;32;33825;-57
2023/05/30 12:48:47;;;;;;;9.02;6.10;;;;;;;23.67;55.65;100537.63;5566539;32;34233;-56
2023/05/30 12:51:50;;;;;;;7.72;6.05;;;;;;;23.78;55.17;100537.81;5570370;32;33757;-56
2023/05/30 12:54:53;;;;;;;9.68;5.30;;;;;;;23.81;52.53;100539.81;5569557;32;33629;-56
2023/05/30 12:57:57;;;;;;;9.88;5.50;;;;;;;23.82;51.96;100540.62;5569277;32;33579;-56
2023/05/30 13:01:00;;;;;;;10.00;5.45;;;;;;;23.80;51.17;100548.38;5570313;32;34689;-56
2023/05/30 13:04:03;;;;;;;8.70;5.28;;;;;;;23.84;51.68;100533.62;5570031;32;33868;-56
2023/05/30 13:07:09;;;;;;;9.75;6.07;;;;;;;23.86;50.89;100542.25;5570155;32;33645;-56
2023/05/30 13:10:12;;;;;;;7.60;5.35;;;;;;;23.99;51.53;100522.88;5570136;32;33761;-57
2023/05/30 13:13:16;;;;;;;10.18;5.70;;;;;;;24.10;51.08;100529.31;5570328;32;33609;-56
2023/05/30 13:16:18;;;;;;;9.38;6.10;;;;;;;24.09;51.33;100533.22;5569908;32;34296;-56
2023/05/30 13:19:21;;;;;;;7.07;5.15;;;;;;;24.20;50.98;100528.69;5569945;32;33782;-56
2023/05/30 13:22:23;;;;;;;7.25;5.62;;;;;;;24.29;50.92;100525.69;5568810;32;34383;-56
2023/05/30 13:25:26;;;;;;;8.57;5.30;;;;;;;24.39;48.36;100530.53;5568779;32;34373;-56
2023/05/30 13:28:28;;;;;;;7.40;5.55;;;;;;;24.33;48.62;100535.53;5569715;32;34817;-56
2023/05/30 13:31:33;;;;;;;7.80;5.57;;;;;;;24.20;49.73;100536.09;5567958;32;34305;-57
2023/05/30 13:34:39;;;;;;;14.80;5.70;;;;;;;24.01;48.82;100531.53;5569594;32;34485;-56
2023/05/30 13:37:41;;;;;;;9.23;5.90;;;;;;;24.00;51.00;100535.41;5561031;32;34254;-56
2023/05/30 13:40:44;;;;;;;8.93;5.50;;;;;;;24.06;52.23;100528.47;5550163;32;33719;-56
2023/05/30 13:43:47;;;;;;;17.45;6.57;;;;;;;24.17;49.74;100523.94;5559339;32;33691;-56
2023/05/30 13:46:49;;;;;;;32.20;7.37;;;;;;;24.13;48.68;100529.38;5569346;32;33696;-56
2023/05/30 13:49:52;;;;;;;17.40;6.30;;;;;;;24.27;51.01;100528.00;5569581;32;34362;-57
2023/05/30 13:52:54;;;;;;;9.63;5.75;;;;;;;24.26;49.51;100518.19;5568932;32;33631;-56
2023/05/30 13:55:56;;;;;;;19.05;6.20;;;;;;;24.30;48.88;100514.34;5553765;32;33638;-57
2023/05/30 13:58:59;;;;;;;14.18;5.93;;;;;;;24.37;48.05;100519.94;5550220;32;33719;-56
2023/05/30 14:02:02;;;;;;;9.88;5.55;;;;;;;24.33;48.46;100515.56;5553453;32;34409;-56
2023/05/30 14:05:05;;;;;;;9.85;6.15;;;;;;;24.42;46.92;100512.59;5563073;32;33668;-57
2023/05/30 14:08:07;;;;;;;22.37;6.85;;;;;;;24.44;48.80;100511.06;5562730;32;33673;-57
2023/05/30 14:11:10;;;;;;;11.85;6.43;;;;;;;24.35;48.59;100499.56;5557522;32;33690;-57
2023/05/30 14:14:14;;;;;;;15.55;6.62;;;;;;;24.31;48.16;100498.72;5552768;32;33637;-56
2023/05/30 14:17:17;;;;;;;15.95;6.20;;;;;;;24.33;48.33;100491.69;5564661;32;33620;-56
2023/05/30 14:20:19;;;;;;;13.55;6.47;;;;;;;24.38;47.53;100499.59;5569198;32;34296;-57
2023/05/30 14:23:22;;;;;;;10.50;6.57;;;;;;;24.37;47.06;100500.75;5569117;32;33439;-56
2023/05/30 14:26:24;;;;;;;18.62;6.62;;;;;;;24.34;47.68;100498.75;5560279;32;33320;-57
2023/05/30 14:29:28;;;;;;;18.52;7.10;;;;;;;24.30;48.92;100508.06;5549705;32;34426;-56
2023/05/30 14:32:31;;;;;;;8.80;6.15;;;;;;;24.32;48.91;100516.72;5549221;32;34388;-56
2023/05/30 14:35:34;;;;;;;12.10;6.70;;;;;;;24.33;48.33;100523.78;5552275;32;33563;-56
2023/05/30 14:38:37;;;;;;;7.35;6.25;;;;;;;24.26;46.54;100534.63;5568680;32;33697;-57
2023/05/30 14:41:39;;;;;;;15.48;6.62;;;;;;;24.22;46.52;100563.94;5566835;32;33703;-56
2023/05/30 14:44:41;;;;;;;17.73;6.55;;;;;;;24.13;48.37;100592.34;5569155;32;33720;-56
2023/05/30 14:47:44;;;;;;;18.95;6.28;;;;;;;23.61;51.33;100599.28;5562768;32;33970;-56
2023/05/30 14:50:46;;;;;;;14.82;6.25;;;;;;;23.13;51.27;100609.66;5549353;32;33664;-56
2023/05/30 14:53:50;;;;;;;8.77;5.22;;;;;;;22.73;50.59;100590.84;5549509;32;33719;-56
2023/05/30 14:56:52;;;;;;;15.95;7.12;;;;;;;22.62;53.26;100568.75;5558217;32;34430;-56
2023/05/30 14:59:55;;;;;;;13.07;6.80;;;;;;;22.03;51.82;100594.25;5565377;32;34369;-56
2023/05/30 15:02:57;;;;;;;12.65;6.40;;;;;;;21.57;53.05;100602.03;5562121;32;34357;-56
2023/05/30 15:06:00;;;;;;;11.38;6.25;;;;;;;21.36;57.10;100602.25;5567121;32;33718;-56
2023/05/30 15:09:03;;;;;;;10.15;5.78;;;;;;;21.17;55.72;100613.75;5549358;32;34240;-57
2023/05/30 15:12:07;;;;;;;11.88;6.55;;;;;;;21.03;57.47;100611.44;5553281;32;33594;-57
2023/05/30 15:15:09;;;;;;;10.30;5.93;;;;;;;20.77;57.29;100619.19;5568134;32;33765;-56
2023/05/30 15:18:12;;;;;;;9.73;5.87;;;;;;;20.51;56.46;100623.06;5564855;32;33686;-57
2023/05/30 15:21:15;;;;;;;9.38;6.50;;;;;;;20.50;57.76;100620.69;5557808;32;32531;-56
2023/05/30 15:24:17;;;;;;;9.68;6.90;;;;;;;20.41;58.96;100618.06;5563400;32;34414;-56
2023/05/30 15:27:19;;;;;;;11.55;7.05;;;;;;;20.42;59.27;100614.19;5555292;32;33984;-56
2023/05/30 15:30:22;;;;;;;9.73;6.25;;;;;;;20.41;56.12;100605.22;5560441;32;34322;-57
2023/05/30 15:33:25;;;;;;;13.25;7.03;;;;;;;20.46;55.24;100604.19;5561927;32;34543;-56
